Time;durP1;ratioP1;P1;durP2;ratioP2;P2;SDS_P1;SDS_P2;PMS_P1;PMS_P2;Temp;Humidity;BMP_temperature;BMP_pressure;BME280_temperature;BME280_humidity;BME280_pressure;Samples;Min_cycle;Max_cycle;Signal;HPM_P1;HPM_P2
2023/09/07 04:52:42;;;;;;;;;;;;;;;;;;5429592;23;20341;-71
2023/09/07 04:55:09;;;;;;;;;;;;;;;;;;4955855;29;19929;-70
2023/09/07 04:57:36;;;;;;;;;;;;;;;;;;4955512;29;20254;-70
2023/09/07 05:00:04;;;;;;;;;;;;;;;;;;4955920;29;19922;-69
2023/09/07 05:02:31;;;;;;;;;;;;;;;;;;4956171;28;19981;-68
2023/09/07 05:04:58;;;;;;;;;;;;;;;;;;5010970;23;20424;-76
2023/09/07 05:07:25;;;;;;;;;;;;;;;;;;4958716;29;19923;-75
2023/09/07 05:09:53;;;;;;;;;;;;;;;;;;4958589;29;19922;-75
2023/09/07 05:12:19;;;;;;;;;;;;;;;;;;4958415;29;19922;-75
2023/09/07 05:14:47;;;;;;;;;;;;;;;;;;4958709;29;19930;-74
2023/09/07 05:17:14;;;;;;;;;;;;;;;;;;4958203;29;19922;-74
2023/09/07 05:19:41;;;;;;;;;;;;;;;;;;4958633;29;19922;-74
2023/09/07 05:22:08;;;;;;;;;;;;;;;;;;4960271;28;20298;-73
2023/09/07 05:24:35;;;;;;;;;;;;;;;;;;4962554;28;20023;-73
2023/09/07 05:27:03;;;;;;;;;;;;;;;;;;4962104;29;19933;-73
2023/09/07 05:29:30;;;;;;;;;;;;;;;;;;4963876;29;19969;-73
2023/09/07 05:31:57;;;;;;;;;;;;;;;;;;4961609;29;20297;-74
2023/09/07 05:34:23;;;;;;;;;;;;;;;;;;4962674;29;19926;-73
2023/09/07 05:36:50;;;;;;;;;;;;;;;;;;4961285;29;19929;-73
2023/09/07 05:39:17;;;;;;;;;;;;;;;;;;4962073;29;19933;-73
2023/09/07 05:41:44;;;;;;;;;;;;;;;;;;4961255;29;19942;-73
2023/09/07 05:44:11;;;;;;;;;;;;;;;;;;4960823;29;19923;-73
2023/09/07 05:46:38;;;;;;;;;;;;;;;;;;4961438;29;19927;-73
2023/09/07 05:49:05;;;;;;;;;;;;;;;;;;4960242;29;20366;-73
2023/09/07 05:51:32;;;;;;;;;;;;;;;;;;4960555;29;19923;-73
2023/09/07 05:53:59;;;;;;;;;;;;;;;;;;4960272;29;19930;-72
2023/09/07 05:56:26;;;;;;;;;;;;;;;;;;4960287;29;19929;-73
2023/09/07 05:58:53;;;;;;;;;;;;;;;;;;4960256;29;19922;-73
2023/09/07 06:01:20;;;;;;;;;;;;;;;;;;4959809;29;19929;-72
2023/09/07 06:03:47;;;;;;;;;;;;;;;;;;4959070;29;19929;-71
2023/09/07 06:06:14;;;;;;;;;;;;;;;;;;4959305;29;19922;-71
2023/09/07 06:08:41;;;;;;;;;;;;;;;;;;4959050;29;19922;-74
2023/09/07 06:11:08;;;;;;;;;;;;;;;;;;4959013;29;19926;-73
2023/09/07 06:13:35;;;;;;;;;;;20.80;99.90;;;;;;4958501;29;19922;-72
2023/09/07 06:16:02;;;;;;;;;;;22.00;99.90;;;;;;4958853;29;19929;-72
2023/09/07 06:18:29;;;;;;;;;;;23.20;99.90;;;;;;4959075;29;19946;-72
2023/09/07 06:20:55;;;;;;;;;;;24.40;99.90;;;;;;4959223;29;19945;-72
2023/09/07 06:23:22;;;;;;;;;;;25.80;99.90;;;;;;4959447;29;19930;-72
2023/09/07 06:25:49;;;;;;;;;;;27.00;99.90;;;;;;4959369;29;19922;-72
2023/09/07 06:28:16;;;;;;;;;;;;;;;;;;4961521;29;19923;-72
2023/09/07 06:30:43;;;;;;;;;;;;;;;;;;4958540;29;19929;-72
2023/09/07 06:33:09;;;;;;;;;;;;;;;;;;4958295;28;19931;-72
2023/09/07 06:35:36;;;;;;;;;;;;;;;;;;4958402;29;19929;-72
2023/09/07 06:38:03;;;;;;;;;;;;;;;;;;4958374;29;20021;-72
2023/09/07 06:40:30;;;;;;;;;;;;;;;;;;4958174;29;19922;-72
2023/09/07 06:42:58;;;;;;;;;;;;;;;;;;4958287;29;19922;-72
2023/09/07 06:45:25;;;;;;;;;;;;;;;;;;4958215;29;19926;-72
2023/09/07 06:47:52;;;;;;;;;;;;;;;;;;4958328;29;19931;-72
2023/09/07 06:50:18;;;;;;;;;;;;;;;;;;4958287;29;20299;-72
2023/09/07 06:52:46;;;;;;;;;;;;;;;;;;4958102;29;20017;-72
2023/09/07 06:55:13;;;;;;;;;;;;;;;;;;4958894;29;20247;-72
2023/09/07 06:57:40;;;;;;;;;;;;;;;;;;4958100;29;19923;-74
2023/09/07 07:00:07;;;;;;;;;;;;;;;;;;4958097;29;19944;-74
2023/09/07 07:02:34;;;;;;;;;;;;;;;;;;4957879;28;20373;-73
2023/09/07 07:05:01;;;;;;;;;;;;;;;;;;4957577;29;19973;-73
2023/09/07 07:07:28;;;;;;;;;;;;;;;;;;4958155;29;19922;-74
2023/09/07 07:09:54;;;;;;;;;;;;;;;;;;4958240;29;19922;-74
2023/09/07 07:12:21;;;;;;;;;;;;;;;;;;4958177;29;19922;-75
2023/09/07 07:14:48;;;;;;;;;;;;;;;;;;4957941;29;19926;-72
2023/09/07 07:17:18;;;;;;;;;;;;;;;;;;4957754;29;19922;-74
2023/09/07 07:19:45;;;;;;;;;;;;;;;;;;4957850;29;19922;-73
2023/09/07 07:22:12;;;;;;;;;;;;;;;;;;4957278;29;20339;-73
2023/09/07 07:24:40;;;;;;;;;;;;;;;;;;4957654;29;19934;-72
2023/09/07 07:27:07;;;;;;;;;;;;;;;;;;4957720;29;19923;-73
2023/09/07 07:29:34;;;;;;;;;;;;;;;;;;4957986;29;19922;-73
2023/09/07 07:32:01;;;;;;;;;;;;;;;;;;4957699;29;19945;-72
2023/09/07 07:34:27;;;;;;;;;;;;;;;;;;4957958;29;19929;-72
2023/09/07 07:36:54;;;;;;;;;;;;;;;;;;4957714;29;19945;-72
2023/09/07 07:39:21;;;;;;;;;;;;;;;;;;4957568;29;19930;-72
2023/09/07 07:41:48;;;;;;;;;;;;;;;;;;4957280;29;20298;-72
2023/09/07 07:44:15;;;;;;;;;;;;;;;;;;4957082;28;19930;-72
2023/09/07 07:46:42;;;;;;;;;;;;;;;;;;4958146;29;20300;-72
2023/09/07 07:49:09;;;;;;;;;;;;;;;;;;4957200;29;19922;-72
2023/09/07 07:51:36;;;;;;;;;;;;;;;;;;4957196;28;20111;-72
2023/09/07 07:54:03;;;;;;;;;;;;;;;;;;4957073;29;19929;-72
2023/09/07 07:56:30;;;;;;;;;;;;;;;;;;4956562;29;20389;-72
2023/09/07 07:58:57;;;;;;;;;;;;;;;;;;4957096;29;19923;-72
2023/09/07 08:01:26;;;;;;;;;;;;;;;;;;4956730;29;19923;-72
2023/09/07 08:03:52;;;;;;;;;;;;;;;;;;4956853;29;19929;-72
2023/09/07 08:06:19;;;;;;;;;;;;;;;;;;4956879;29;19933;-72
2023/09/07 08:08:46;;;;;;;;;;;;;;;;;;4956863;29;19927;-72
2023/09/07 08:11:14;;;;;;;;;;;;;;;;;;4958337;29;19923;-73
2023/09/07 08:13:43;;;;;;;;;;;;;;;;;;4957463;29;19972;-73
2023/09/07 08:16:10;;;;;;;;;;;;;;;;;;4957997;29;19934;-73
2023/09/07 08:18:37;;;;;;;;;;;;;;;;;;4957154;29;19923;-73
2023/09/07 08:21:04;;;;;;;;;;;;;;;;;;4957495;29;19922;-73
2023/09/07 08:23:31;;;;;;;;;;;;;;;;;;4957447;29;19945;-73
2023/09/07 08:25:58;;;;;;;;;;;;;;;;;;4959643;29;19930;-74
2023/09/07 08:28:25;;;;;;;;;;;;;;;;;;4957902;29;20346;-75
2023/09/07 08:30:53;;;;;;;;;;;;;;;;;;4957963;29;19970;-75
2023/09/07 08:33:22;;;;;;;;;;;;;;;;;;4957213;29;20016;-74
2023/09/07 08:35:49;;;;;;;;;;;;;;;;;;4957183;29;19923;-73
2023/09/07 08:38:16;;;;;;;;;;;;;;;;;;4957126;29;19981;-72
2023/09/07 08:40:46;;;;;;;;;;;;;;;;;;4957082;29;20080;-72
2023/09/07 08:43:13;;;;;;;;;;;;;;;;;;4956953;29;20382;-73
2023/09/07 08:45:40;;;;;;;;;;;;;;;;;;4957338;29;19958;-73
2023/09/07 08:48:07;;;;;;;;;;;;;;;;;;4957243;29;20328;-73
2023/09/07 08:50:34;;;;;;;;;;;;;;;;;;4956933;29;19923;-73
2023/09/07 08:53:03;;;;;;;;;;;;;;;;;;4956465;29;19926;-73
2023/09/07 08:55:30;;;;;;;;;;;;;;;;;;4956052;28;20305;-73
2023/09/07 08:57:57;;;;;;;;;;;;;;;;;;4955940;29;20389;-73
2023/09/07 09:00:24;;;;;;;;;;;;;;;;;;4956070;29;19929;-72
2023/09/07 09:02:51;;;;;;;;;;;;;;;;;;4956788;29;20285;-72
2023/09/07 09:05:19;;;;;;;;;;;;;;;;;;4956813;29;19929;-73
2023/09/07 09:07:46;;;;;;;;;;;;;;;;;;4956833;29;19930;-72
2023/09/07 09:10:13;;;;;;;;;;;;;;;;;;4956206;29;19922;-71
2023/09/07 09:12:39;;;;;;;;;;;;;;;;;;4956510;29;19923;-73
2023/09/07 09:15:07;;;;;;;;;;;;;;;;;;4956497;29;19922;-74
2023/09/07 09:17:34;;;;;;;;;;;;;;;;;;4956676;29;19923;-74
2023/09/07 09:20:01;;;;;;;;;;;;;;;;;;4964910;29;19961;-72
2023/09/07 09:22:28;;;;;;;;;;;;;;;;;;4977597;29;19917;-72
2023/09/07 09:24:55;;;;;;;;;;;;;;;;;;4977974;29;19932;-72
2023/09/07 09:27:22;;;;;;;;;;;;;;;;;;4978597;29;19917;-73
2023/09/07 09:29:48;;;;;;;;;;;;;;;;;;4977816;29;19906;-74
2023/09/07 09:32:15;;;;;;;;;;;;;;;;;;4977470;29;19985;-72
2023/09/07 09:34:43;;;;;;;;;;;;;;;;;;4978799;29;19928;-72
2023/09/07 09:37:11;;;;;;;;;;;;;;;;;;4978887;29;19945;-72
2023/09/07 09:39:38;;;;;;;;;;;;;;;;;;4962874;29;19922;-72
2023/09/07 09:42:05;;;;;;;;;;;;;;;;;;4969703;29;19929;-72
2023/09/07 09:44:32;;;;;;;;;;;;;;;;;;4957386;29;19930;-72
2023/09/07 09:46:59;;;;;;;;;;;;;;;;;;4957854;29;19981;-72
2023/09/07 09:49:26;;;;;;;;;;;;;;;;;;4958632;29;19929;-71
2023/09/07 09:51:53;;;;;;;;;;;;;;;;;;4957668;29;20391;-72
2023/09/07 09:54:20;;;;;;;;;;;;;;;;;;4957884;29;19989;-72
2023/09/07 09:56:47;;;;;;;;;;;;;;;;;;4957208;29;19929;-72
2023/09/07 09:59:13;;;;;;;;;;;;;;;;;;4957035;29;20314;-72
2023/09/07 10:01:41;;;;;;;;;;;;;;;;;;4957535;29;20326;-72
2023/09/07 10:04:08;;;;;;;;;;;;;;;;;;4957036;29;20289;-72
2023/09/07 10:06:35;;;;;;;;;;;;;;;;;;4956859;28;19930;-72
2023/09/07 10:09:03;;;;;;;;;;;;;;;;;;4959354;29;19978;-73
2023/09/07 10:11:30;;;;;;;;;;;;;;;;;;4959109;29;19922;-74
2023/09/07 10:13:57;;;;;;;;;;;;;;;;;;4959171;29;19922;-74
2023/09/07 10:16:24;;;;;;;;;;;;;;;;;;4960239;29;19938;-73
2023/09/07 10:18:51;;;;;;;;;;;;;;;;;;4959347;29;19933;-74
2023/09/07 10:21:18;;;;;;;;;;;;;;;;;;4959230;29;19923;-73
2023/09/07 10:23:45;;;;;;;;;;;;;;;;;;4959950;29;20013;-74
2023/09/07 10:26:12;;;;;;;;;;;;;;;;;;4959007;29;19923;-74
2023/09/07 10:28:39;;;;;;;;;;;;;;;;;;4958992;29;19944;-74
2023/09/07 10:31:05;;;;;;;;;;;;;;;;;;4960983;29;19929;-74
2023/09/07 10:33:32;;;;;;;;;;;;;;;;;;4967111;29;19929;-75
2023/09/07 10:35:59;;;;;;;;;;;;;;;;;;4969446;29;19923;-73
2023/09/07 10:38:26;;;;;;;;;;;;;;;;;;4974751;29;20293;-73
2023/09/07 10:40:53;;;;;;;;;;;;;;;;;;4969317;29;19930;-73
2023/09/07 10:43:20;;;;;;;;;;;;;;;;;;4959881;29;19929;-74
2023/09/07 10:45:47;;;;;;;;;;;;;;;;;;4959533;29;19929;-74
2023/09/07 10:48:14;;;;;;;;;;;;;;;;;;4959605;29;19922;-75
2023/09/07 10:50:41;;;;;;;;;;;;;;;;;;4959127;29;19922;-74
2023/09/07 10:53:08;;;;;;;;;;;;;;;;;;4959104;29;19922;-75
2023/09/07 10:55:35;;;;;;;;;;;;;;;;;;4959655;29;19922;-73
2023/09/07 10:58:02;;;;;;;;;;;;;;;;;;4960672;29;19973;-73
2023/09/07 11:00:29;;;;;;;;;;;;;;;;;;4958652;29;20438;-73
2023/09/07 11:02:56;;;;;;;;;;;;;;;;;;4958299;29;19930;-73
2023/09/07 11:05:23;;;;;;;;;;;;;;;;;;4965591;23;19922;-74
2023/09/07 11:07:49;;;;;;;;;;;;;;;;;;4957940;29;19931;-74
2023/09/07 11:10:16;;;;;;;;;;;;;;;;;;4957832;29;19929;-73
2023/09/07 11:12:43;;;;;;;;;;;;;;;;;;4957972;29;20413;-74
2023/09/07 11:15:10;;;;;;;;;;;;;;;;;;4958271;29;19933;-74
2023/09/07 11:17:37;;;;;;;;;;;;;;;;;;4958629;28;19970;-74
2023/09/07 11:20:06;;;;;;;;;;;;;;;;;;4958382;28;19926;-75
2023/09/07 11:22:32;;;;;;;;;;;;;;;;;;4959928;29;19922;-77
2023/09/07 11:25:00;;;;;;;;;;;;;;;;;;4961035;29;19929;-77
2023/09/07 11:27:27;;;;;;;;;;;;;;;;;;4960183;28;19976;-74
2023/09/07 11:29:53;;;;;;;;;;;;;;;;;;4960435;29;19962;-76
2023/09/07 11:32:22;;;;;;;;;;;;;;;;;;4959689;29;19928;-76
2023/09/07 11:34:50;;;;;;;;;;;;;;;;;;4959728;28;19922;-75
2023/09/07 11:37:17;;;;;;;;;;;;;;;;;;4959231;29;19969;-76
2023/09/07 11:39:43;;;;;;;;;;;;;;;;;;4959944;29;19933;-76
2023/09/07 11:42:10;;;;;;;;;;;;;;;;;;4959432;29;20351;-76
2023/09/07 11:44:36;;;;;;;;;;;;;;;;;;4959421;29;19922;-75
2023/09/07 11:47:04;;;;;;;;;;;;;;;;;;4959487;29;19926;-76
2023/09/07 11:49:31;;;;;;;;;;;;;;;;;;4959954;29;19934;-76
2023/09/07 11:51:58;;;;;;;;;;;;;;;;;;4960363;28;19922;-76
2023/09/07 11:54:26;;;;;;;;;;;;;;;;;;4959389;29;19966;-76
2023/09/07 11:56:53;;;;;;;;;;;;;;;;;;4959908;29;19928;-76
2023/09/07 11:59:20;;;;;;;;;;;;;;;;;;4959542;29;19922;-76
2023/09/07 12:01:46;;;;;;;;;;;;;;;;;;4959266;29;19922;-76
2023/09/07 12:04:13;;;;;;;;;;;;;;;;;;4959845;29;19922;-76
2023/09/07 12:06:40;;;;;;;;;;;;;;;;;;4960822;29;19922;-76
2023/09/07 12:09:09;;;;;;;;;;;;;;;;;;4958618;29;20009;-76
2023/09/07 12:11:35;;;;;;;;;;;;;;;;;;4957049;29;20270;-77
2023/09/07 12:14:03;;;;;;;;;;;;;;;;;;4956813;29;19922;-75
2023/09/07 12:16:30;;;;;;;;;;;;;;;;;;4956947;29;20293;-77
2023/09/07 12:18:57;;;;;;;;;;;;;;;;;;4957096;29;19923;-77
2023/09/07 12:21:24;;;;;;;;;;;;;;;;;;4957059;29;20282;-77
2023/09/07 14:54:13;;;;;;;;;;;26.00;99.90;;;;;;5119423;27;19912;-78
2023/09/07 14:56:40;;;;;;;;;;;25.90;99.90;;;;;;5115702;28;19924;-77
2023/09/07 14:59:06;;;;;;;;;;;25.80;99.90;;;;;;5113951;28;20359;-78
2023/09/07 15:01:33;;;;;;;;;;;25.80;99.90;;;;;;5112511;28;19928;-77
2023/09/07 15:03:59;;;;;;;;;;;25.80;99.90;;;;;;5112714;28;19927;-78
2023/09/07 15:06:26;;;;;;;;;;;25.90;99.90;;;;;;5112397;28;19931;-78
2023/09/07 15:08:52;;;;;;;;;;;26.00;99.90;;;;;;5113708;28;19928;-78
2023/09/07 15:11:22;;;;;;;;;;;26.00;99.90;;;;;;5113625;28;19924;-79
2023/09/07 15:13:49;;;;;;;;;;;26.00;99.90;;;;;;5114223;28;20379;-77
2023/09/07 15:16:16;;;;;;;;;;;25.90;99.90;;;;;;5111935;28;19924;-80
2023/09/07 15:18:42;;;;;;;;;;;25.90;99.90;;;;;;5114319;28;19931;-79
2023/09/07 15:21:09;;;;;;;;;;;26.00;99.90;;;;;;5115869;28;19931;-79
2023/09/07 15:23:36;;;;;;;;;;;26.00;99.90;;;;;;5115846;28;19924;-78
2023/09/07 15:26:03;;;;;;;;;;;26.00;99.90;;;;;;5114561;28;19928;-78
2023/09/07 15:28:31;;;;;;;;;;;25.90;99.90;;;;;;5113150;28;19924;-78
2023/09/07 15:30:58;;;;;;;;;;;25.90;99.90;;;;;;5114987;28;19924;-75
2023/09/07 15:33:24;;;;;;;;;;;25.80;99.90;;;;;;5111863;28;19924;-77
2023/09/07 15:35:51;;;;;;;;;;;25.80;99.90;;;;;;5111629;28;19924;-77
2023/09/07 15:38:19;;;;;;;;;;;25.70;99.90;;;;;;5114706;28;19931;-79
2023/09/07 15:40:48;;;;;;;;;;;25.70;99.90;;;;;;5115470;28;19924;-79
2023/09/07 15:43:14;;;;;;;;;;;25.60;99.90;;;;;;5116923;28;20390;-78
2023/09/07 15:45:42;;;;;;;;;;;25.60;99.90;;;;;;5116557;28;19924;-78
2023/09/07 15:48:09;;;;;;;;;;;25.50;99.90;;;;;;5114514;28;20383;-77
2023/09/07 15:50:36;;;;;;;;;;;25.40;99.90;;;;;;5111814;28;20350;-76
2023/09/07 15:53:02;;;;;;;;;;;25.40;99.90;;;;;;5122649;28;19924;-76
2023/09/07 15:55:29;;;;;;;;;;;25.40;99.90;;;;;;5132181;28;19923;-74
2023/09/07 15:57:55;;;;;;;;;;;25.40;99.90;;;;;;5132498;28;19998;-76
2023/09/07 16:00:22;;;;;;;;;;;25.30;99.90;;;;;;5132050;28;19928;-74
2023/09/07 16:02:50;;;;;;;;;;;25.30;99.90;;;;;;5131907;28;19924;-75
2023/09/07 16:05:16;;;;;;;;;;;25.20;99.90;;;;;;5120469;28;19923;-75
2023/09/07 16:07:43;;;;;;;;;;;25.30;99.90;;;;;;5118687;28;19924;-79
2023/09/07 16:10:12;;;;;;;;;;;25.30;99.90;;;;;;5118902;28;19928;-72
2023/09/07 16:12:39;;;;;;;;;;;25.30;99.90;;;;;;5117369;28;20380;-73
2023/09/07 16:15:06;;;;;;;;;;;25.30;99.90;;;;;;5117214;28;19971;-73
2023/09/07 16:17:32;;;;;;;;;;;25.20;99.90;;;;;;5117704;28;19924;-73
2023/09/07 16:20:00;;;;;;;;;;;25.10;99.90;;;;;;5118154;28;19946;-72
2023/09/07 16:22:28;;;;;;;;;;;24.90;99.90;;;;;;5118872;28;19946;-75
2023/09/07 16:24:54;;;;;;;;;;;24.80;99.90;;;;;;5119213;28;20005;-78
2023/09/07 16:27:21;;;;;;;;;;;24.80;99.90;;;;;;5118331;28;19923;-79
2023/09/07 16:29:47;;;;;;;;;;;24.80;99.90;;;;;;5118056;28;19931;-79
2023/09/07 16:32:16;;;;;;;;;;;24.90;99.90;;;;;;5118572;28;19931;-77
2023/09/07 16:34:43;;;;;;;;;;;24.90;99.90;;;;;;5119204;28;19924;-78
2023/09/07 16:37:11;;;;;;;;;;;24.90;99.90;;;;;;5117684;28;20307;-76
2023/09/07 16:39:37;;;;;;;;;;;24.90;99.90;;;;;;5116896;28;19923;-75
2023/09/07 16:42:04;;;;;;;;;;;24.80;99.90;;;;;;5116707;28;20298;-75
2023/09/07 16:44:31;;;;;;;;;;;24.70;99.90;;;;;;5116498;28;19924;-76
2023/09/07 16:46:57;;;;;;;;;;;24.70;99.90;;;;;;5116608;28;19924;-77
2023/09/07 16:49:24;;;;;;;;;;;24.70;99.90;;;;;;5117684;28;19923;-77
2023/09/07 16:51:50;;;;;;;;;;;24.70;99.90;;;;;;5116661;28;19946;-77
2023/09/07 16:54:18;;;;;;;;;;;24.60;99.90;;;;;;5116944;28;19975;-76
2023/09/07 16:56:45;;;;;;;;;;;24.30;99.90;;;;;;5116894;28;19928;-77
2023/09/07 16:59:11;;;;;;;;;;;24.20;99.90;;;;;;5117312;28;20371;-78
2023/09/07 17:01:38;;;;;;;;;;;24.10;99.90;;;;;;5119952;28;19946;-78
2023/09/07 17:04:05;;;;;;;;;;;24.00;99.90;;;;;;5116825;28;20322;-77
2023/09/07 17:06:32;;;;;;;;;;;23.90;99.90;;;;;;5120736;28;19976;-77
2023/09/07 17:08:58;;;;;;;;;;;23.80;99.90;;;;;;5117208;28;19924;-75
2023/09/07 17:11:26;;;;;;;;;;;23.70;99.90;;;;;;5117082;28;19924;-76
2023/09/07 17:13:53;;;;;;;;;;;23.60;99.90;;;;;;5116168;28;19947;-74
2023/09/07 17:16:20;;;;;;;;;;;23.50;99.90;;;;;;5114787;28;19923;-74
2023/09/07 17:18:46;;;;;;;;;;;23.40;99.90;;;;;;5116046;28;19930;-76
2023/09/07 17:21:13;;;;;;;;;;;23.30;99.90;;;;;;5116616;28;19924;-74
2023/09/07 17:23:39;;;;;;;;;;;23.10;99.90;;;;;;5116565;28;19930;-76
2023/09/07 17:26:06;;;;;;;;;;;23.00;99.90;;;;;;5116403;28;19924;-76
2023/09/07 17:28:34;;;;;;;;;;;22.80;99.90;;;;;;5116578;28;19923;-75
2023/09/07 17:31:00;;;;;;;;;;;22.80;99.90;;;;;;5116111;28;20279;-76
2023/09/07 17:33:27;;;;;;;;;;;22.60;99.90;;;;;;5116663;28;19924;-76
2023/09/07 17:35:55;;;;;;;;;;;22.40;99.90;;;;;;5116217;28;19931;-76
2023/09/07 17:38:22;;;;;;;;;;;22.30;99.90;;;;;;5115937;28;19924;-78
2023/09/07 17:40:49;;;;;;;;;;;22.10;99.90;;;;;;5117665;28;19924;-79
2023/09/07 17:43:15;;;;;;;;;;;22.00;99.90;;;;;;5116278;28;19935;-73
2023/09/07 17:45:43;;;;;;;;;;;21.80;99.90;;;;;;5115473;28;19924;-74
2023/09/07 17:48:10;;;;;;;;;;;21.70;99.90;;;;;;5115995;28;19923;-74
2023/09/07 17:50:36;;;;;;;;;;;21.60;99.90;;;;;;5116018;28;19946;-72
2023/09/07 17:53:03;;;;;;;;;;;21.40;99.90;;;;;;5115952;28;19931;-75
2023/09/07 17:55:29;;;;;;;;;;;21.20;99.90;;;;;;5116032;28;19935;-75
2023/09/07 17:57:56;;;;;;;;;;;21.10;99.90;;;;;;5116243;28;19977;-75
2023/09/07 18:00:22;;;;;;;;;;;21.00;99.90;;;;;;5117857;28;19931;-77
